Time;durP1;ratioP1;P1;durP2;ratioP2;P2;SDS_P1;SDS_P2;PMS_P1;PMS_P2;Temp;Humidity;BMP_temperature;BMP_pressure;BME280_temperature;BME280_humidity;BME280_pressure;Samples;Min_cycle;Max_cycle;Signal;HPM_P1;HPM_P2
2023/06/22 00:01:34;;;;;;;6.72;4.70;;;23.70;99.90;;;;;;4170822;28;20033;-59
2023/06/22 00:03:35;;;;;;;9.25;4.70;;;23.50;99.90;;;;;;4178445;28;20029;-59
2023/06/22 00:05:35;;;;;;;6.10;4.35;;;23.40;99.90;;;;;;4161451;28;20041;-59
2023/06/22 00:07:36;;;;;;;7.45;4.82;;;23.20;99.90;;;;;;4167285;28;20029;-59
2023/06/22 00:09:37;;;;;;;4.80;3.42;;;23.10;99.90;;;;;;4177810;28;20400;-60
2023/06/22 00:11:38;;;;;;;6.32;3.78;;;23.10;99.90;;;;;;4177450;28;20409;-59
2023/06/22 00:13:39;;;;;;;6.55;3.95;;;23.10;99.90;;;;;;4179467;28;20045;-59
2023/06/22 00:15:41;;;;;;;6.03;4.18;;;23.00;99.90;;;;;;4171660;28;20393;-59
2023/06/22 00:17:41;;;;;;;7.30;4.65;;;23.00;99.90;;;;;;4163319;28;20427;-59
2023/06/22 00:19:42;;;;;;;6.13;4.03;;;22.90;99.90;;;;;;4164040;28;20030;-59
2023/06/22 00:21:47;;;;;;;5.45;4.00;;;22.90;99.90;;;;;;4162465;28;20030;-60
2023/06/22 00:23:47;;;;;;;5.35;3.70;;;22.90;99.90;;;;;;4172519;28;20029;-59
2023/06/22 00:25:48;;;;;;;7.97;4.18;;;22.90;99.90;;;;;;4172125;28;20037;-59
2023/06/22 00:27:49;;;;;;;10.48;5.30;;;22.90;99.90;;;;;;4176325;28;20040;-59
2023/06/22 00:29:49;;;;;;;5.68;4.20;;;22.90;99.90;;;;;;4178113;28;20035;-60
2023/06/22 00:31:50;;;;;;;5.40;4.07;;;22.80;99.90;;;;;;4177935;28;20037;-60
2023/06/22 00:33:50;;;;;;;5.20;4.07;;;22.90;99.90;;;;;;4178914;28;20442;-60
2023/06/22 00:35:52;;;;;;;4.35;3.58;;;22.80;99.90;;;;;;4178186;28;20037;-60
2023/06/22 00:38:00;;;;;;;4.18;3.15;;;23.00;99.90;;;;;;4175841;28;20022;-59
2023/06/22 00:40:00;;;;;;;5.20;3.58;;;22.90;99.90;;;;;;4177097;28;20029;-59
2023/06/22 00:42:01;;;;;;;5.70;4.10;;;22.90;99.90;;;;;;4176781;28;20514;-59
2023/06/22 00:44:01;;;;;;;6.50;3.90;;;23.00;99.90;;;;;;4179234;28;20035;-59
2023/06/22 00:46:03;;;;;;;7.53;4.63;;;23.00;99.90;;;;;;4173639;28;20034;-60
2023/06/22 00:48:04;;;;;;;5.80;4.05;;;23.00;99.90;;;;;;4165908;28;20392;-59
2023/06/22 00:50:07;;;;;;;4.85;3.92;;;22.90;99.90;;;;;;4174754;28;20084;-59
2023/06/22 00:52:13;;;;;;;5.65;4.03;;;22.90;99.90;;;;;;4176975;28;20486;-59
2023/06/22 00:54:14;;;;;;;7.10;4.90;;;22.80;99.90;;;;;;4178490;28;20060;-59
2023/06/22 00:56:15;;;;;;;6.57;4.13;;;22.70;99.90;;;;;;4175813;28;20033;-59
2023/06/22 00:58:15;;;;;;;6.30;3.97;;;22.60;99.90;;;;;;4177679;28;20041;-59
2023/06/22 01:00:18;;;;;;;4.57;3.72;;;22.70;99.90;;;;;;4176252;28;20514;-60
2023/06/22 01:02:19;;;;;;;;;;;22.70;99.90;;;;;;4168494;28;20045;-59
2023/06/22 01:04:19;;;;;;;4.60;3.33;;;22.80;99.90;;;;;;4162059;28;19923;-62
2023/06/22 01:06:29;;;;;;;6.32;4.03;;;22.80;99.90;;;;;;4167530;28;20421;-60
2023/06/22 01:08:42;;;;;;;6.32;4.63;;;22.80;99.90;;;;;;4175621;28;20090;-60
2023/06/22 01:11:06;;;;;;;5.80;4.22;;;22.80;99.90;;;;;;4175511;28;20053;-59
2023/06/22 01:13:39;;;;;;;5.10;3.90;;;22.80;99.90;;;;;;4175287;28;20095;-59
2023/06/22 01:15:46;;;;;;;5.60;4.20;;;22.80;99.90;;;;;;4177450;28;20076;-59
2023/06/22 01:17:49;;;;;;;5.13;3.95;;;22.80;99.90;;;;;;4176819;28;20166;-59
2023/06/22 01:19:56;;;;;;;6.38;4.10;;;22.90;99.90;;;;;;4178576;28;20484;-59
2023/06/22 01:22:00;;;;;;;6.70;4.65;;;23.00;99.90;;;;;;4176640;28;20028;-59
2023/06/22 01:24:06;;;;;;;9.55;5.18;;;23.00;99.90;;;;;;4178029;28;20032;-60
2023/06/22 01:26:36;;;;;;;5.72;4.50;;;23.00;99.90;;;;;;4176483;28;20498;-59
2023/06/22 01:28:49;;;;;;;6.13;4.78;;;23.00;99.90;;;;;;4162100;28;20125;-59
2023/06/22 01:31:04;;;;;;;6.70;4.68;;;23.10;99.90;;;;;;4166686;28;20100;-64
2023/06/22 01:33:06;;;;;;;6.35;4.20;;;23.10;99.90;;;;;;4175463;28;20025;-59
2023/06/22 01:35:10;;;;;;;5.43;4.50;;;23.10;99.90;;;;;;4176422;28;20029;-60
2023/06/22 01:37:11;;;;;;;5.43;4.35;;;23.10;99.90;;;;;;4176416;28;20025;-60
2023/06/22 01:39:13;;;;;;;5.60;4.37;;;23.10;99.90;;;;;;4177589;28;20037;-59
2023/06/22 01:41:16;;;;;;;6.85;4.40;;;23.10;99.90;;;;;;4169756;28;20037;-59
2023/06/22 01:43:17;;;;;;;7.40;3.83;;;23.10;99.90;;;;;;4177727;28;20043;-59
2023/06/22 01:45:19;;;;;;;6.32;4.35;;;23.10;99.90;;;;;;4176402;28;20591;-59
2023/06/22 01:47:22;;;;;;;8.98;5.45;;;23.00;99.90;;;;;;4177929;28;20495;-63
2023/06/22 01:49:23;;;;;;;8.25;6.05;;;22.80;99.90;;;;;;4176347;28;20040;-59
2023/06/22 01:51:24;;;;;;;8.10;5.45;;;22.70;99.90;;;;;;4176434;28;20029;-59
2023/06/22 01:53:25;;;;;;;6.38;5.40;;;22.60;99.90;;;;;;4177118;28;20057;-59
2023/06/22 01:55:25;;;;;;;6.65;5.05;;;22.50;99.90;;;;;;4176093;28;20435;-59
2023/06/22 01:57:27;;;;;;;6.43;4.60;;;22.50;99.90;;;;;;4177038;28;20029;-59
2023/06/22 01:59:51;;;;;;;7.20;5.05;;;22.50;99.90;;;;;;4161917;28;20030;-59
2023/06/22 02:02:01;;;;;;;6.25;4.50;;;22.60;99.90;;;;;;4169590;28;20029;-60
2023/06/22 02:04:13;;;;;;;7.18;4.88;;;22.60;99.90;;;;;;4177562;28;20070;-59
2023/06/22 02:06:19;;;;;;;7.20;5.45;;;22.70;99.90;;;;;;4177123;28;20343;-59
2023/06/22 02:08:23;;;;;;;8.55;5.13;;;22.70;99.90;;;;;;4175317;28;20045;-60
2023/06/22 02:10:25;;;;;;;5.60;4.47;;;22.70;99.90;;;;;;4174749;28;20075;-59
2023/06/22 02:12:28;;;;;;;6.35;4.82;;;22.70;99.90;;;;;;4177263;28;20036;-59
2023/06/22 02:14:29;;;;;;;;;;;22.80;99.90;;;;;;4176633;28;20072;-60
2023/06/22 02:16:32;;;;;;;6.63;4.60;;;22.80;99.90;;;;;;4176222;28;19909;-59
2023/06/22 02:18:35;;;;;;;6.70;4.95;;;22.70;99.90;;;;;;4173282;28;20128;-59
2023/06/22 02:20:40;;;;;;;7.70;5.07;;;22.80;99.90;;;;;;4173749;28;20357;-59
2023/06/22 02:22:41;;;;;;;9.00;5.05;;;22.70;99.90;;;;;;4176048;28;20033;-59
2023/06/22 02:24:41;;;;;;;6.00;4.85;;;22.80;99.90;;;;;;4176805;28;20052;-59
2023/06/22 02:26:45;;;;;;;7.20;5.50;;;22.70;99.90;;;;;;4176207;28;20025;-59
2023/06/22 02:28:45;;;;;;;7.70;5.10;;;22.70;99.90;;;;;;4171414;28;20030;-59
2023/06/22 02:30:46;;;;;;;8.15;5.07;;;22.80;99.90;;;;;;4160565;28;20114;-59
2023/06/22 02:32:47;;;;;;;7.75;5.53;;;22.80;99.90;;;;;;4175924;28;20088;-59
2023/06/22 02:34:47;;;;;;;6.68;4.82;;;22.80;99.90;;;;;;4172096;28;20068;-59
2023/06/22 02:36:52;;;;;;;5.75;4.90;;;22.80;99.90;;;;;;4167794;28;20106;-59
2023/06/22 02:38:54;;;;;;;6.28;4.88;;;22.80;99.90;;;;;;4169449;28;20063;-59
2023/06/22 02:40:54;;;;;;;7.40;5.13;;;22.80;99.90;;;;;;4163226;28;20029;-59
2023/06/22 02:42:55;;;;;;;6.93;5.13;;;22.80;99.90;;;;;;4174270;28;20063;-59
2023/06/22 02:44:56;;;;;;;6.53;4.70;;;22.80;99.90;;;;;;4177646;28;20057;-59
2023/06/22 02:46:56;;;;;;;7.15;5.25;;;22.90;99.90;;;;;;4176031;28;20052;-59
2023/06/22 02:48:57;;;;;;;6.72;5.07;;;22.90;99.90;;;;;;4175815;28;20120;-59
2023/06/22 02:50:57;;;;;;;8.45;4.88;;;22.80;99.90;;;;;;4160354;28;20037;-59
2023/06/22 02:52:58;;;;;;;7.40;5.20;;;22.90;99.90;;;;;;4170933;28;20484;-59
2023/06/22 02:54:58;;;;;;;5.65;4.97;;;22.90;99.90;;;;;;4180288;28;20565;-59
2023/06/22 02:57:02;;;;;;;7.75;5.50;;;22.90;99.90;;;;;;4178374;28;20033;-59
2023/06/22 02:59:03;;;;;;;6.88;4.72;;;22.90;99.90;;;;;;4179865;28;20053;-59
2023/06/22 03:01:06;;;;;;;6.85;5.07;;;22.90;99.90;;;;;;4171121;28;20091;-59
2023/06/22 03:03:07;;;;;;;7.43;5.25;;;22.80;99.90;;;;;;4176856;28;20037;-59
2023/06/22 03:05:13;;;;;;;9.40;5.65;;;22.80;99.90;;;;;;4178689;28;20451;-61
2023/06/22 03:07:13;;;;;;;7.85;5.90;;;22.80;99.90;;;;;;4177039;28;20036;-59
2023/06/22 03:09:14;;;;;;;6.50;4.95;;;22.70;99.90;;;;;;4179744;28;20100;-59
2023/06/22 03:11:14;;;;;;;7.15;5.63;;;22.70;99.90;;;;;;4176486;28;20114;-59
2023/06/22 03:13:16;;;;;;;7.03;5.45;;;22.70;99.90;;;;;;4179708;28;20392;-59
2023/06/22 03:15:19;;;;;;;5.67;4.83;;;22.60;99.90;;;;;;4170727;28;20052;-59
2023/06/22 03:17:20;;;;;;;7.05;4.95;;;22.60;99.90;;;;;;4169267;28;20264;-59
2023/06/22 03:19:21;;;;;;;6.47;4.90;;;22.60;99.90;;;;;;4180487;28;20092;-61
2023/06/22 03:21:23;;;;;;;6.85;5.28;;;22.60;99.90;;;;;;4179270;28;20013;-60
2023/06/22 03:23:23;;;;;;;9.60;6.85;;;22.50;99.90;;;;;;4179789;28;20025;-60
2023/06/22 03:25:24;;;;;;;8.00;6.22;;;22.30;99.90;;;;;;4173872;28;20029;-59
2023/06/22 03:27:24;;;;;;;7.25;6.32;;;22.20;99.90;;;;;;4168248;28;20376;-59
2023/06/22 03:29:25;;;;;;;7.95;5.88;;;22.10;99.90;;;;;;4176123;28;20029;-59
2023/06/22 03:31:26;;;;;;;9.73;7.20;;;22.10;99.90;;;;;;4175697;28;20033;-59
2023/06/22 03:33:26;;;;;;;10.82;6.68;;;21.90;99.90;;;;;;4180392;28;20392;-59
2023/06/22 03:35:27;;;;;;;8.35;6.57;;;21.80;99.90;;;;;;4175233;28;20029;-59
2023/06/22 03:37:29;;;;;;;8.73;6.43;;;21.70;99.90;;;;;;4171096;28;20108;-59
2023/06/22 03:39:29;;;;;;;7.33;5.67;;;21.60;99.90;;;;;;4176149;28;20441;-59
2023/06/22 03:41:30;;;;;;;6.93;5.40;;;21.60;99.90;;;;;;4174570;28;20068;-59
2023/06/22 03:43:30;;;;;;;11.13;6.35;;;21.70;99.90;;;;;;4174966;28;20025;-59
2023/06/22 03:45:31;;;;;;;9.32;5.88;;;21.70;99.90;;;;;;4169634;28;20459;-62
2023/06/22 03:47:33;;;;;;;7.80;5.68;;;21.80;99.90;;;;;;4175754;28;20025;-61
2023/06/22 03:49:34;;;;;;;11.73;6.30;;;21.90;99.90;;;;;;4174108;28;20052;-59
2023/06/22 03:51:35;;;;;;;6.75;5.60;;;21.90;99.90;;;;;;4165917;28;20060;-59
2023/06/22 03:53:35;;;;;;;8.25;6.05;;;22.00;99.90;;;;;;4179214;28;20123;-59
2023/06/22 03:55:36;;;;;;;7.93;6.50;;;22.10;99.90;;;;;;4175709;28;20038;-60
2023/06/22 03:57:37;;;;;;;7.88;6.35;;;22.10;99.90;;;;;;4175331;28;20392;-60
2023/06/22 03:59:37;;;;;;;8.75;6.15;;;22.10;99.90;;;;;;4171456;28;20087;-59
2023/06/22 04:01:38;;;;;;;8.55;6.47;;;22.20;99.90;;;;;;4171782;28;20116;-59
2023/06/22 04:03:39;;;;;;;8.10;6.95;;;22.20;99.90;;;;;;4172994;28;20065;-59
2023/06/22 04:05:40;;;;;;;7.30;5.85;;;22.20;99.90;;;;;;4169383;28;20511;-59
2023/06/22 04:07:41;;;;;;;8.02;6.30;;;22.20;99.90;;;;;;4176137;28;20040;-59
2023/06/22 04:09:41;;;;;;;7.13;5.95;;;22.30;99.90;;;;;;4172849;28;20037;-59
2023/06/22 04:11:42;;;;;;;7.50;6.40;;;22.30;99.90;;;;;;4162435;28;20041;-59
2023/06/22 04:13:42;;;;;;;7.90;5.80;;;22.30;99.90;;;;;;4179659;28;20511;-59
2023/06/22 04:15:43;;;;;;;8.93;6.03;;;22.40;99.90;;;;;;4178850;28;20358;-59
2023/06/22 04:17:44;;;;;;;9.50;6.72;;;22.40;99.90;;;;;;4176339;28;20045;-59
2023/06/22 04:19:44;;;;;;;8.52;6.18;;;22.40;99.90;;;;;;4176073;28;20037;-59
2023/06/22 04:21:45;;;;;;;10.70;6.85;;;22.50;99.90;;;;;;4171700;28;20041;-59
2023/06/22 04:23:46;;;;;;;13.77;7.40;;;22.50;99.90;;;;;;4175816;28;20431;-59
2023/06/22 04:25:47;;;;;;;7.32;5.90;;;22.50;99.90;;;;;;4178669;28;20472;-59
2023/06/22 04:27:48;;;;;;;9.02;6.20;;;22.50;99.90;;;;;;4178559;28;20059;-59
2023/06/22 04:29:48;;;;;;;9.30;5.43;;;22.60;99.90;;;;;;4176468;28;20025;-59
2023/06/22 04:31:50;;;;;;;10.73;6.22;;;22.60;99.90;;;;;;4174706;28;20040;-59
2023/06/22 04:33:51;;;;;;;10.07;6.72;;;22.60;99.90;;;;;;4162971;28;20082;-59
2023/06/22 04:35:51;;;;;;;7.60;6.20;;;22.60;99.90;;;;;;4171148;28;20044;-63
2023/06/22 04:37:54;;;;;;;8.80;6.88;;;22.60;99.90;;;;;;4177755;28;20044;-60
2023/06/22 04:39:55;;;;;;;9.07;7.15;;;22.60;99.90;;;;;;4178125;28;20025;-59
2023/06/22 04:42:00;;;;;;;7.15;5.93;;;22.60;99.90;;;;;;4177633;28;20025;-59
2023/06/22 04:44:00;;;;;;;8.25;6.15;;;22.60;99.90;;;;;;4177027;28;20434;-59
2023/06/22 04:46:03;;;;;;;10.40;6.60;;;22.60;99.90;;;;;;4177716;28;20025;-59
2023/06/22 04:48:04;;;;;;;;;;;22.60;99.90;;;;;;4177284;28;20504;-59
2023/06/22 04:50:05;;;;;;;7.65;5.95;;;22.50;99.90;;;;;;4177587;28;19962;-60
2023/06/22 04:52:08;;;;;;;8.43;7.00;;;22.50;99.90;;;;;;4175919;28;20512;-59
2023/06/22 04:54:09;;;;;;;9.40;6.95;;;22.40;99.90;;;;;;4171634;28;20500;-59
2023/06/22 04:56:10;;;;;;;11.73;7.00;;;22.40;99.90;;;;;;4176145;28;20037;-59
2023/06/22 04:58:12;;;;;;;9.32;6.55;;;22.40;99.90;;;;;;4174766;28;20427;-59
2023/06/22 05:00:16;;;;;;;;;;;22.40;99.90;;;;;;4172733;28;20432;-62
2023/06/22 05:02:17;;;;;;;10.77;8.00;;;22.40;99.90;;;;;;4172032;28;19909;-62
2023/06/22 05:04:18;;;;;;;8.02;6.63;;;22.30;99.90;;;;;;4172194;28;20049;-62
2023/06/22 05:06:18;;;;;;;8.35;6.93;;;22.30;99.90;;;;;;4173716;28;20037;-62
2023/06/22 05:08:19;;;;;;;7.50;6.28;;;22.40;99.90;;;;;;4172841;28;20064;-62
2023/06/22 05:10:20;;;;;;;7.53;6.53;;;22.40;99.90;;;;;;4178088;28;20438;-62
2023/06/22 05:12:20;;;;;;;8.48;7.00;;;22.40;99.90;;;;;;4176925;28;20045;-62
2023/06/22 05:14:21;;;;;;;7.88;6.40;;;22.30;99.90;;;;;;4177780;28;20124;-62
2023/06/22 05:16:25;;;;;;;8.20;6.60;;;22.30;99.90;;;;;;4174889;28;20040;-61
2023/06/22 05:18:27;;;;;;;8.50;6.88;;;22.30;99.90;;;;;;4171428;28;20037;-62
2023/06/22 05:20:28;;;;;;;10.53;8.03;;;22.30;99.90;;;;;;4176911;28;20029;-62
2023/06/22 05:22:28;;;;;;;8.05;6.70;;;22.30;99.90;;;;;;4169896;28;20090;-62
2023/06/22 05:24:29;;;;;;;8.55;6.55;;;22.30;99.90;;;;;;4174151;28;20037;-62
2023/06/22 05:26:30;;;;;;;9.77;7.28;;;22.30;99.90;;;;;;4171211;28;20033;-61
2023/06/22 05:28:33;;;;;;;7.88;6.78;;;22.20;99.90;;;;;;4169479;28;20511;-62
2023/06/22 05:30:33;;;;;;;8.10;6.35;;;22.30;99.90;;;;;;4169891;28;20029;-63
2023/06/22 05:32:35;;;;;;;8.32;6.75;;;22.30;99.90;;;;;;4176705;28;20118;-62
2023/06/22 05:34:35;;;;;;;8.18;5.93;;;22.30;99.90;;;;;;4171939;28;20033;-62
2023/06/22 05:36:36;;;;;;;6.75;5.65;;;22.40;99.90;;;;;;4166218;28;20115;-62
2023/06/22 05:38:46;;;;;;;7.38;6.20;;;22.40;99.90;;;;;;4210513;27;20388;-62
2023/06/22 05:40:46;;;;;;;8.38;6.53;;;22.40;99.90;;;;;;4216009;28;20028;-62
2023/06/22 05:42:47;;;;;;;8.55;6.50;;;22.40;99.90;;;;;;4218113;28;20123;-62
2023/06/22 05:44:48;;;;;;;7.22;6.05;;;22.40;99.90;;;;;;4199735;28;20391;-62
2023/06/22 05:46:48;;;;;;;10.05;5.97;;;22.40;99.90;;;;;;4192084;28;20036;-62
2023/06/22 05:48:49;;;;;;;8.55;6.32;;;22.50;99.90;;;;;;4195745;28;20532;-62
2023/06/22 05:50:50;;;;;;;9.23;6.63;;;22.50;99.90;;;;;;4188609;28;20024;-62
2023/06/22 05:52:50;;;;;;;8.20;6.45;;;22.50;99.90;;;;;;4202991;28;20025;-62
2023/06/22 05:54:51;;;;;;;7.35;6.25;;;22.60;99.90;;;;;;4198063;28;20119;-63
2023/06/22 05:56:51;;;;;;;7.57;6.38;;;22.60;99.90;;;;;;4208640;28;20024;-62
2023/06/22 05:58:52;;;;;;;8.32;6.70;;;22.70;99.90;;;;;;4200107;28;20031;-62
2023/06/22 06:00:52;;;;;;;11.43;8.38;;;22.70;99.90;;;;;;4204828;28;20036;-63
2023/06/22 06:02:53;;;;;;;9.65;7.50;;;22.70;99.90;;;;;;4208593;28;20099;-63
2023/06/22 06:04:54;;;;;;;8.48;7.38;;;22.70;99.90;;;;;;4211269;28;20032;-62
2023/06/22 06:06:54;;;;;;;9.95;6.88;;;22.70;99.90;;;;;;4191341;28;20032;-63
2023/06/22 06:08:55;;;;;;;8.63;7.40;;;22.80;99.90;;;;;;4212930;28;20119;-63
2023/06/22 06:10:57;;;;;;;8.60;7.18;;;22.80;99.90;;;;;;4211593;28;20028;-63
2023/06/22 06:12:58;;;;;;;7.95;6.72;;;22.80;99.90;;;;;;4194254;28;20034;-63
2023/06/22 06:14:59;;;;;;;9.00;7.18;;;22.80;99.90;;;;;;4212193;28;20029;-63
2023/06/22 06:16:59;;;;;;;8.75;6.95;;;22.80;99.90;;;;;;4212474;28;20033;-63
2023/06/22 06:19:00;;;;;;;11.52;7.55;;;22.80;99.90;;;;;;4213808;28;20445;-63
2023/06/22 06:21:00;;;;;;;9.38;7.68;;;22.80;99.90;;;;;;4210924;28;20040;-64
2023/06/22 06:23:01;;;;;;;9.73;7.15;;;22.80;99.90;;;;;;4212629;28;20499;-64
2023/06/22 06:25:02;;;;;;;11.07;8.52;;;22.80;99.90;;;;;;4194393;28;20466;-64
2023/06/22 06:27:04;;;;;;;11.38;8.13;;;22.80;99.90;;;;;;4210087;28;20483;-63
2023/06/22 06:29:05;;;;;;;10.13;6.95;;;22.80;99.90;;;;;;4190963;28;20036;-64
2023/06/22 06:31:07;;;;;;;9.50;7.47;;;22.80;99.90;;;;;;4203773;28;20074;-65
2023/06/22 06:33:08;;;;;;;8.88;7.47;;;22.80;99.90;;;;;;4212780;28;20051;-64
2023/06/22 06:35:10;;;;;;;8.43;6.43;;;22.70;99.90;;;;;;4213249;28;20032;-65
2023/06/22 06:37:10;;;;;;;10.13;7.47;;;22.70;99.90;;;;;;4215104;28;20068;-64
2023/06/22 06:39:11;;;;;;;8.88;6.80;;;22.70;99.90;;;;;;4194337;28;20094;-64
2023/06/22 06:41:15;;;;;;;8.95;6.82;;;22.70;99.90;;;;;;4206843;28;20036;-64
2023/06/22 06:43:16;;;;;;;9.38;7.97;;;22.70;99.90;;;;;;4220057;28;20028;-64
2023/06/22 06:45:22;;;;;;;9.38;7.47;;;22.80;99.90;;;;;;4212218;28;20082;-64
2023/06/22 06:47:23;;;;;;;10.05;7.75;;;22.70;99.90;;;;;;4212756;28;20020;-64
2023/06/22 06:49:24;;;;;;;10.15;7.60;;;22.70;99.90;;;;;;4195450;28;20086;-65
2023/06/22 06:51:24;;;;;;;10.05;8.10;;;22.70;99.90;;;;;;4193234;28;20044;-64
2023/06/22 06:53:25;;;;;;;9.70;8.07;;;22.70;99.90;;;;;;4196433;28;20233;-64
2023/06/22 06:55:26;;;;;;;9.43;7.68;;;22.80;99.90;;;;;;4194797;28;20067;-64
2023/06/22 06:57:28;;;;;;;9.90;7.68;;;22.80;99.90;;;;;;4174453;28;20036;-64
2023/06/22 06:59:30;;;;;;;10.90;7.85;;;22.80;99.90;;;;;;4201720;28;20025;-64
2023/06/22 07:01:33;;;;;;;10.25;7.70;;;22.80;99.90;;;;;;4203297;28;20099;-64
2023/06/22 07:03:34;;;;;;;10.82;8.55;;;22.80;99.90;;;;;;4198456;28;20327;-64
2023/06/22 07:05:35;;;;;;;11.25;8.75;;;22.70;99.90;;;;;;4198752;28;20089;-63
2023/06/22 07:07:37;;;;;;;9.45;7.80;;;22.70;99.90;;;;;;4188390;28;20498;-63
2023/06/22 07:09:37;;;;;;;8.57;6.82;;;22.70;99.90;;;;;;4189567;28;20041;-64
2023/06/22 07:11:38;;;;;;;14.60;9.20;;;22.70;99.90;;;;;;4198226;28;20054;-64
2023/06/22 07:13:38;;;;;;;12.70;8.20;;;22.60;99.90;;;;;;4200306;28;20024;-64
2023/06/22 07:15:39;;;;;;;11.45;8.43;;;22.70;99.90;;;;;;4196963;28;20040;-63
2023/06/22 07:17:42;;;;;;;10.32;8.45;;;22.70;99.90;;;;;;4200524;28;20044;-64
2023/06/22 07:19:43;;;;;;;13.55;9.13;;;22.60;99.90;;;;;;4203457;28;20051;-63
2023/06/22 07:21:43;;;;;;;13.15;7.63;;;22.60;99.90;;;;;;4201300;28;20072;-63
2023/06/22 07:23:44;;;;;;;10.95;8.05;;;22.70;99.90;;;;;;4199309;28;20035;-63
2023/06/22 07:25:45;;;;;;;11.48;8.55;;;22.70;99.90;;;;;;4197891;28;20043;-63
2023/06/22 07:28:06;;;;;;;11.10;8.02;;;22.60;99.90;;;;;;4200140;28;20117;-63
2023/06/22 07:30:08;;;;;;;9.52;7.85;;;22.70;99.90;;;;;;4183807;28;20098;-64
2023/06/22 07:32:08;;;;;;;10.77;8.07;;;22.80;99.90;;;;;;4181427;28;20120;-63
2023/06/22 07:34:09;;;;;;;9.85;7.45;;;22.80;99.90;;;;;;4185993;28;20045;-63
2023/06/22 07:36:10;;;;;;;10.50;8.20;;;22.80;99.90;;;;;;4179054;28;20032;-63
2023/06/22 07:38:10;;;;;;;9.70;6.97;;;22.90;99.90;;;;;;4190904;28;20530;-63
2023/06/22 07:40:11;;;;;;;8.80;7.18;;;23.00;99.90;;;;;;4195959;28;20040;-63
2023/06/22 07:42:12;;;;;;;9.60;8.02;;;23.00;99.90;;;;;;4202835;28;20514;-63
2023/06/22 07:44:12;;;;;;;9.85;7.88;;;22.90;99.90;;;;;;4189234;28;20048;-63
2023/06/22 07:46:13;;;;;;;10.90;8.68;;;22.90;99.90;;;;;;4184433;28;20072;-63
2023/06/22 07:48:14;;;;;;;9.80;8.32;;;22.80;99.90;;;;;;4175739;28;20080;-63
2023/06/22 07:50:14;;;;;;;11.38;8.00;;;22.80;99.90;;;;;;4187513;28;20037;-63
2023/06/22 07:52:15;;;;;;;9.07;7.82;;;22.70;99.90;;;;;;4190178;28;20329;-63
2023/06/22 07:54:16;;;;;;;10.75;8.55;;;22.80;99.90;;;;;;4190161;28;20056;-63
2023/06/22 07:56:20;;;;;;;12.98;10.07;;;22.70;99.90;;;;;;4186786;28;20086;-63
2023/06/22 07:58:21;;;;;;;13.43;9.80;;;22.60;99.90;;;;;;4184678;28;20036;-62
2023/06/22 08:00:21;;;;;;;16.70;12.15;;;22.50;99.90;;;;;;4181249;28;20028;-63
2023/06/22 08:02:22;;;;;;;13.27;9.57;;;22.40;99.90;;;;;;4185081;28;20032;-62
2023/06/22 08:04:23;;;;;;;14.90;10.85;;;22.30;99.90;;;;;;4185844;28;20124;-62
2023/06/22 08:06:23;;;;;;;15.32;11.63;;;22.20;99.90;;;;;;4183432;28;20039;-62
2023/06/22 08:08:24;;;;;;;15.30;10.20;;;22.10;99.90;;;;;;4184164;28;20041;-63
2023/06/22 08:10:25;;;;;;;15.27;9.57;;;22.10;99.90;;;;;;4180176;28;20029;-64
2023/06/22 08:12:26;;;;;;;10.73;7.82;;;22.20;99.90;;;;;;4181415;28;20044;-63
2023/06/22 08:14:27;;;;;;;12.13;8.45;;;22.30;99.90;;;;;;4183993;28;20040;-63
2023/06/22 08:16:28;;;;;;;11.57;7.95;;;22.30;99.90;;;;;;4179250;28;20033;-62
2023/06/22 08:18:28;;;;;;;11.43;7.82;;;22.30;99.90;;;;;;4180325;28;20036;-63
2023/06/22 08:20:29;;;;;;;10.10;7.97;;;22.50;99.90;;;;;;4181755;28;20380;-62
2023/06/22 08:22:30;;;;;;;11.70;8.60;;;22.50;99.90;;;;;;4183681;28;22255;-63
2023/06/22 08:24:30;;;;;;;10.43;8.35;;;22.60;99.90;;;;;;4181940;28;20378;-62
2023/06/22 08:26:33;;;;;;;13.75;9.68;;;22.70;99.90;;;;;;4182473;28;20261;-62
2023/06/22 08:28:33;;;;;;;12.05;8.88;;;22.70;99.90;;;;;;4178270;28;20556;-63
2023/06/22 08:30:34;;;;;;;10.80;8.43;;;22.70;99.90;;;;;;4184301;28;20056;-63
2023/06/22 08:32:34;;;;;;;11.18;8.55;;;22.80;99.90;;;;;;4193707;28;20032;-62
2023/06/22 08:34:36;;;;;;;10.88;8.90;;;22.90;99.90;;;;;;4188292;28;20588;-63
2023/06/22 08:36:37;;;;;;;14.32;9.48;;;22.90;99.90;;;;;;4191437;28;20029;-63
2023/06/22 08:38:38;;;;;;;12.88;7.60;;;23.00;99.90;;;;;;4182515;28;20072;-63
2023/06/22 08:40:38;;;;;;;12.68;8.77;;;23.00;99.90;;;;;;4181962;28;20520;-63
2023/06/22 08:42:41;;;;;;;18.33;13.90;;;23.00;99.90;;;;;;4184178;28;20043;-63
2023/06/22 08:44:41;;;;;;;16.02;10.40;;;22.70;99.90;;;;;;4160684;28;20038;-63
2023/06/22 08:46:42;;;;;;;10.55;8.27;;;22.70;99.90;;;;;;4176751;28;20487;-63
2023/06/22 08:48:43;;;;;;;11.07;8.85;;;22.80;99.90;;;;;;4168709;28;20053;-63
2023/06/22 08:50:43;;;;;;;15.32;11.80;;;22.80;99.90;;;;;;4165588;28;20029;-62
2023/06/22 08:52:45;;;;;;;12.80;9.63;;;22.80;99.90;;;;;;4168411;28;20037;-63
2023/06/22 08:54:46;;;;;;;12.48;9.38;;;22.80;99.90;;;;;;4153746;28;20527;-62
2023/06/22 08:56:47;;;;;;;12.75;10.02;;;22.80;99.90;;;;;;4183460;28;20029;-62
2023/06/22 08:58:48;;;;;;;12.27;8.70;;;22.80;99.90;;;;;;4175298;28;20048;-63
2023/06/22 09:00:49;;;;;;;13.43;9.60;;;22.90;99.90;;;;;;4181170;28;20039;-62
2023/06/22 09:02:49;;;;;;;11.25;9.15;;;22.80;99.90;;;;;;4186076;28;20048;-62
2023/06/22 09:04:55;;;;;;;13.10;10.00;;;22.90;99.90;;;;;;4179560;28;20029;-62
2023/06/22 09:06:55;;;;;;;10.82;9.38;;;22.80;99.90;;;;;;4177682;28;20124;-64
2023/06/22 09:08:59;;;;;;;16.15;11.80;;;22.90;99.90;;;;;;4183333;28;20389;-64
2023/06/22 09:10:59;;;;;;;12.82;9.80;;;22.80;99.90;;;;;;4164298;28;20046;-63
2023/06/22 09:13:00;;;;;;;11.73;9.48;;;22.70;99.90;;;;;;4179148;28;20056;-62
2023/06/22 09:15:02;;;;;;;14.98;10.98;;;22.80;99.90;;;;;;4179142;28;20044;-62
2023/06/22 09:17:03;;;;;;;9.48;7.55;;;22.70;99.90;;;;;;4180949;28;20929;-63
2023/06/22 09:19:03;;;;;;;12.73;8.50;;;22.80;99.90;;;;;;4186112;28;20391;-62
2023/06/22 09:21:04;;;;;;;11.88;9.57;;;22.90;99.90;;;;;;4179894;28;20411;-62
2023/06/22 09:23:04;;;;;;;13.55;9.00;;;22.80;99.90;;;;;;4183754;28;20048;-62
2023/06/22 09:25:05;;;;;;;12.43;10.07;;;22.90;99.90;;;;;;4182024;28;20221;-63
2023/06/22 09:27:06;;;;;;;11.25;8.50;;;22.90;99.90;;;;;;4180961;28;20102;-62
2023/06/22 09:29:07;;;;;;;10.65;8.80;;;23.00;99.90;;;;;;4179247;28;20021;-62
2023/06/22 09:31:07;;;;;;;11.50;8.82;;;23.10;99.90;;;;;;4181844;28;20075;-62
2023/06/22 09:33:08;;;;;;;14.20;10.45;;;23.10;99.90;;;;;;4182456;28;20474;-62
2023/06/22 09:35:09;;;;;;;11.57;9.48;;;23.00;99.90;;;;;;4179457;28;20166;-62
2023/06/22 09:37:10;;;;;;;11.15;9.02;;;23.10;99.90;;;;;;4182830;28;20399;-62
2023/06/22 09:39:10;;;;;;;10.85;8.23;;;23.10;99.90;;;;;;4197400;28;20028;-62
2023/06/22 09:41:11;;;;;;;10.93;8.88;;;23.20;99.90;;;;;;4191072;28;20028;-62
2023/06/22 09:43:12;;;;;;;18.00;11.13;;;23.20;99.90;;;;;;4197393;28;20370;-64
2023/06/22 09:45:12;;;;;;;15.07;11.20;;;23.10;99.90;;;;;;4196082;28;20882;-63
2023/06/22 09:47:13;;;;;;;10.38;8.13;;;23.10;99.90;;;;;;4197237;28;20056;-63
2023/06/22 09:49:13;;;;;;;10.45;8.10;;;23.20;99.90;;;;;;4197438;28;20427;-62
2023/06/22 09:51:14;;;;;;;8.98;7.57;;;23.30;99.90;;;;;;4194840;28;20114;-62
2023/06/22 09:53:15;;;;;;;13.88;9.98;;;23.40;99.90;;;;;;4196006;28;20025;-62
2023/06/22 09:55:16;;;;;;;12.68;9.65;;;23.30;99.90;;;;;;4196097;28;20122;-62
2023/06/22 09:57:16;;;;;;;12.07;9.32;;;23.30;99.90;;;;;;4199120;28;20098;-62
2023/06/22 09:59:17;;;;;;;19.27;10.98;;;23.40;99.90;;;;;;4199621;28;20142;-61
2023/06/22 10:01:18;;;;;;;15.68;11.77;;;23.50;99.90;;;;;;4199704;28;20169;-62
2023/06/22 10:03:19;;;;;;;14.55;10.55;;;23.50;99.90;;;;;;4198673;28;20036;-62
2023/06/22 10:05:19;;;;;;;10.85;9.27;;;23.60;99.90;;;;;;4197412;28;20141;-62
2023/06/22 10:07:20;;;;;;;12.25;8.77;;;23.70;99.90;;;;;;4199050;28;20032;-62
2023/06/22 10:09:21;;;;;;;13.10;10.68;;;23.90;99.90;;;;;;4200135;28;20024;-62
2023/06/22 10:11:26;;;;;;;12.30;9.25;;;24.00;99.90;;;;;;4194807;28;20462;-62
2023/06/22 10:13:27;;;;;;;13.02;9.88;;;24.10;99.90;;;;;;4195578;28;20032;-62
2023/06/22 10:15:28;;;;;;;12.93;9.32;;;24.30;99.90;;;;;;4188985;28;20452;-63
2023/06/22 10:17:28;;;;;;;13.68;9.45;;;24.30;99.90;;;;;;4179303;28;20037;-62
2023/06/22 10:19:29;;;;;;;9.27;7.57;;;24.40;99.90;;;;;;4180736;28;20036;-62
2023/06/22 10:21:29;;;;;;;9.93;8.40;;;24.50;99.90;;;;;;4182715;28;20028;-62
2023/06/22 10:23:30;;;;;;;10.48;8.07;;;24.60;99.90;;;;;;4183514;28;20020;-62
2023/06/22 10:25:30;;;;;;;8.43;7.55;;;24.70;99.90;;;;;;4187496;28;20728;-63
2023/06/22 10:27:31;;;;;;;11.45;7.95;;;24.80;99.90;;;;;;4188502;28;20512;-62
2023/06/22 10:29:32;;;;;;;14.25;10.45;;;24.90;99.90;;;;;;4185768;28;20040;-62
2023/06/22 10:31:32;;;;;;;11.32;8.55;;;24.90;99.90;;;;;;4187245;28;20036;-62